Agness, Oregon
Current Conditions -  °F | °C
As of 9:56 PM on Thursday 27 Nov 2014 (Local Time) from KBOK Reporting Station
Overcast Overcast  
Wind Chill: 58°   Ceiling: 5500
Heat Index: 58°   Visibility: 10mi
Dew Point: 53°   Wind: 12mph
Humidity: 83%   Direction: 150°SSE
Pressure: 29.97"   Gusts: 17mph
Location:  42.56°N, 124.07°W
Report Text: KBOK 280556Z AUTO 15010G15KT 10SM OVC055 14/12 A2997 RMK AO2 56009 60001 T01440116 10155 20138 RAE16B40E55 P0000 SLP148
Loading
Personal Weather Stations






























Interactive Weather Map New forecast layout! Learn more

10-Day Weather Forecast

Advertisements
Track Severe Weather on mobile